createdAt,value
2022-12-22T00:00:16.879Z,100469.53
2022-12-22T00:03:37.597Z,100474.09
2022-12-22T00:06:58.204Z,100475.19
2022-12-22T00:10:18.905Z,100484.91
2022-12-22T00:13:39.867Z,100484.13
2022-12-22T00:17:00.409Z,100483.03
2022-12-22T00:20:30.302Z,100474.09
2022-12-22T00:23:50.890Z,100467.91
2022-12-22T00:27:11.770Z,100461.69
2022-12-22T00:30:33.779Z,100462.50
2022-12-22T00:33:54.500Z,100463.28
2022-12-22T00:37:14.941Z,100463.28
2022-12-22T00:40:40.905Z,100459.81
2022-12-22T00:44:01.354Z,100460.59
2022-12-22T00:47:22.213Z,100457.09
2022-12-22T00:50:49.767Z,100457.91
2022-12-22T00:54:10.510Z,100456.28
2022-12-22T00:57:38.883Z,100463.28
2022-12-22T01:00:59.727Z,100464.13
2022-12-22T01:04:20.388Z,100461.41
2022-12-22T01:07:42.044Z,100454.41
2022-12-22T01:11:02.799Z,100447.09
2022-12-22T01:14:29.035Z,100446.31
2022-12-22T01:17:49.832Z,100435.50
2022-12-22T01:21:11.156Z,100440.91
2022-12-22T01:24:33.405Z,100442.78
2022-12-22T01:27:54.263Z,100434.66
2022-12-22T01:31:15.004Z,100438.97
2022-12-22T01:34:36.072Z,100427.38
2022-12-22T01:37:56.502Z,100430.88
2022-12-22T01:41:18.782Z,100422.78
2022-12-22T01:44:39.478Z,100413.88
2022-12-22T01:47:59.890Z,100413.88
2022-12-22T01:51:24.514Z,100403.88
2022-12-22T01:54:45.474Z,100403.06
2022-12-22T01:58:06.203Z,100410.34
2022-12-22T02:01:26.836Z,100403.06
2022-12-22T02:04:53.923Z,100401.97
2022-12-22T02:08:24.620Z,100410.34
2022-12-22T02:11:55.618Z,100411.16
2022-12-22T02:15:41.648Z,100407.13
2022-12-22T02:19:25.546Z,100406.84
2022-12-22T02:23:14.180Z,100403.06
2022-12-22T02:26:52.289Z,100407.13
2022-12-22T02:30:16.481Z,100401.72
2022-12-22T02:33:38.955Z,100397.66
2022-12-22T02:37:09.309Z,100404.13
2022-12-22T02:40:57.931Z,100410.34
2022-12-22T02:44:44.038Z,100398.72
2022-12-22T02:48:36.250Z,100394.16
2022-12-22T02:52:03.105Z,100398.72
2022-12-22T02:55:24.972Z,100383.59
2022-12-22T02:58:46.436Z,100394.44
2022-12-22T03:02:07.118Z,100397.13
2022-12-22T03:05:27.706Z,100391.72
2022-12-22T03:08:48.458Z,100390.91
2022-12-22T03:12:09.036Z,100390.63
2022-12-22T03:15:29.895Z,100397.13
2022-12-22T03:18:50.682Z,100394.44
2022-12-22T03:22:11.614Z,100388.19
2022-12-22T03:25:32.321Z,100383.91
2022-12-22T03:28:34.494Z,100389.03
2022-12-22T03:31:36.686Z,100383.63
2022-12-22T03:34:38.881Z,100374.69
2022-12-22T03:37:41.033Z,100377.41
2022-12-22T03:40:44.588Z,100366.59
2022-12-22T03:44:05.521Z,100369.28
2022-12-22T03:47:07.754Z,100369.00
2022-12-22T03:50:10.396Z,100360.66
2022-12-22T03:53:12.541Z,100363.63
2022-12-22T03:56:14.730Z,100362.00
2022-12-22T03:59:17.838Z,100361.47
2022-12-22T04:02:20.096Z,100366.31
2022-12-22T04:05:22.384Z,100358.22
2022-12-22T04:08:24.488Z,100370.94
2022-12-22T04:11:45.533Z,100374.41
2022-12-22T04:14:47.651Z,100375.50
2022-12-22T04:17:50.253Z,100371.19
2022-12-22T04:20:52.427Z,100381.97
2022-12-22T04:23:54.673Z,100383.34
2022-12-22T04:26:56.864Z,100372.81
2022-12-22T04:30:02.191Z,100369.56
2022-12-22T04:33:04.426Z,100378.22
2022-12-22T04:36:07.282Z,100379.81
2022-12-22T04:39:09.450Z,100372.81
2022-12-22T04:42:11.727Z,100375.50
2022-12-22T04:45:13.989Z,100375.25
2022-12-22T04:48:16.201Z,100369.03
2022-12-22T04:51:18.395Z,100377.94
2022-12-22T04:54:20.643Z,100370.66
2022-12-22T04:57:22.993Z,100376.84
2022-12-22T05:00:25.219Z,100359.84
2022-12-22T05:03:27.387Z,100357.94
2022-12-22T05:06:29.757Z,100366.84
2022-12-22T05:09:31.891Z,100366.84
2022-12-22T05:12:52.347Z,100366.84
2022-12-22T05:15:54.469Z,100363.34
2022-12-22T05:18:56.688Z,100357.94
2022-12-22T05:21:58.806Z,100359.84
2022-12-22T05:25:01.186Z,100361.72
2022-12-22T05:28:03.647Z,100362.56
2022-12-22T05:31:11.509Z,100363.34
2022-12-22T05:34:13.716Z,100357.66
2022-12-22T05:37:15.953Z,100360.63
2022-12-22T05:40:18.323Z,100360.63
2022-12-22T05:43:21.663Z,100369.00
2022-12-22T05:46:24.022Z,100369.56
2022-12-22T05:49:26.273Z,100367.94
2022-12-22T05:52:29.143Z,100365.25
2022-12-22T05:55:31.369Z,100362.28
2022-12-22T05:58:37.225Z,100363.34
2022-12-22T06:01:39.497Z,100359.84
2022-12-22T06:04:41.687Z,100364.97
2022-12-22T06:07:43.913Z,100362.28
2022-12-22T06:10:46.091Z,100359.84
2022-12-22T06:13:48.281Z,100364.97
2022-12-22T06:16:50.417Z,100361.47
2022-12-22T06:19:52.546Z,100360.63
2022-12-22T06:22:57.055Z,100360.13
2022-12-22T06:26:01.263Z,100374.16
2022-12-22T06:29:03.420Z,100381.19
2022-12-22T06:32:07.911Z,100383.06
2022-12-22T06:35:11.186Z,100388.47
2022-12-22T06:38:13.529Z,100396.56
2022-12-22T06:41:35.771Z,100376.84
2022-12-22T06:44:38.012Z,100381.47
2022-12-22T06:47:40.184Z,100383.06
2022-12-22T06:50:42.384Z,100377.66
2022-12-22T06:53:44.543Z,100374.16
2022-12-22T06:56:46.647Z,100383.88
2022-12-22T06:59:53.617Z,100392.00
2022-12-22T07:02:59.842Z,100383.88
2022-12-22T07:06:02.203Z,100384.72
2022-12-22T07:09:04.398Z,100389.28
2022-12-22T07:12:06.863Z,100387.41
2022-12-22T07:15:09.994Z,100378.47
2022-12-22T07:18:12.453Z,100377.66
2022-12-22T07:21:17.534Z,100378.22
2022-12-22T07:24:23.913Z,100379.31
2022-12-22T07:27:26.088Z,100374.69
2022-12-22T07:30:28.483Z,100386.31
2022-12-22T07:33:30.763Z,100387.13
2022-12-22T07:36:32.906Z,100387.94
2022-12-22T07:39:35.037Z,100379.84
2022-12-22T07:42:46.051Z,100381.72
2022-12-22T07:45:48.219Z,100387.94
2022-12-22T07:49:08.794Z,100393.34
2022-12-22T07:52:10.992Z,100399.81
2022-12-22T07:55:14.183Z,100398.75
2022-12-22T07:58:16.305Z,100410.34
2022-12-22T08:01:18.481Z,100410.63
2022-12-22T08:04:21.973Z,100402.25
2022-12-22T08:07:24.205Z,100389.56
2022-12-22T08:10:26.384Z,100390.66
2022-12-22T08:13:28.671Z,100397.66
2022-12-22T08:16:30.973Z,100404.94
2022-12-22T08:19:34.641Z,100406.59
2022-12-22T08:22:36.812Z,100405.50
2022-12-22T08:25:40.239Z,100397.66
2022-12-22T08:28:51.413Z,100400.09
2022-12-22T08:31:54.516Z,100399.31
2022-12-22T08:34:56.777Z,100395.78
2022-12-22T08:37:59.017Z,100403.63
2022-12-22T08:41:01.191Z,100388.50
2022-12-22T08:44:03.321Z,100389.28
2022-12-22T08:47:07.168Z,100390.91
2022-12-22T08:50:12.844Z,100397.38
2022-12-22T08:53:37.622Z,100390.91
2022-12-22T08:56:37.175Z,100388.22
2022-12-22T08:59:39.323Z,100400.91
2022-12-22T09:02:41.747Z,100386.34
2022-12-22T09:05:43.980Z,100383.88
2022-12-22T09:08:46.110Z,100384.69
2022-12-22T09:11:48.337Z,100383.63
2022-12-22T09:14:50.564Z,100370.91
2022-12-22T09:17:52.804Z,100374.72
2022-12-22T09:20:55.848Z,100374.44
2022-12-22T09:23:58.481Z,100377.13
2022-12-22T09:27:00.740Z,100367.44
2022-12-22T09:30:03.063Z,100346.59
2022-12-22T09:33:05.275Z,100346.59
2022-12-22T09:36:16.592Z,100346.59
2022-12-22T09:39:23.523Z,100342.00
2022-12-22T09:42:32.567Z,100353.91
2022-12-22T09:45:35.795Z,100348.25
2022-12-22T09:48:38.004Z,100352.00
2022-12-22T09:51:43.467Z,100345.53
2022-12-22T09:54:45.563Z,100336.59
2022-12-22T09:57:47.861Z,100343.66
2022-12-22T10:01:01.124Z,100339.31
2022-12-22T10:04:05.275Z,100327.44
2022-12-22T10:07:13.446Z,100328.50
2022-12-22T10:10:28.434Z,100333.09
2022-12-22T10:13:30.634Z,100331.22
2022-12-22T10:16:32.886Z,100333.91
2022-12-22T10:19:35.146Z,100317.69
2022-12-22T10:22:47.760Z,100313.38
2022-12-22T10:29:18.523Z,100315.00
2022-12-22T10:32:22.224Z,100317.41
2022-12-22T10:35:24.514Z,100311.22
2022-12-22T10:38:54.251Z,100301.75
2022-12-22T10:42:01.496Z,100292.81
2022-12-22T10:45:04.033Z,100292.03
2022-12-22T10:48:07.124Z,100277.72
2022-12-22T10:51:11.428Z,100267.44
2022-12-22T10:54:30.302Z,100270.97
2022-12-22T10:57:32.678Z,100258.25
2022-12-22T11:00:34.809Z,100250.13
2022-12-22T11:03:37.137Z,100253.94
2022-12-22T11:06:39.500Z,100280.94
2022-12-22T11:09:41.813Z,100274.19
2022-12-22T11:13:12.186Z,100264.72
2022-12-22T11:16:45.360Z,100261.50
2022-12-22T11:19:54.931Z,100281.72
2022-12-22T11:23:19.086Z,100266.88
2022-12-22T11:26:28.671Z,100257.41
2022-12-22T11:30:08.952Z,100259.31
2022-12-22T11:33:30.029Z,100258.75
2022-12-22T11:36:53.780Z,100253.31
2022-12-22T11:40:30.045Z,100246.31
2022-12-22T11:43:36.702Z,100244.97
2022-12-22T11:46:51.370Z,100247.13
2022-12-22T11:49:56.288Z,100256.63
2022-12-22T11:53:56.087Z,100250.38
2022-12-22T11:57:10.841Z,100262.53
2022-12-22T12:00:14.436Z,100255.53
2022-12-22T12:03:40.019Z,100244.19
2022-12-22T12:07:20.543Z,100242.84
2022-12-22T12:10:35.566Z,100254.72
2022-12-22T12:13:53.247Z,100249.59
2022-12-22T12:16:57.967Z,100245.28
2022-12-22T12:20:02.699Z,100254.44
2022-12-22T12:23:52.689Z,100255.53
2022-12-22T12:27:19.063Z,100257.72
2022-12-22T12:30:37.960Z,100248.78
2022-12-22T12:33:53.243Z,100231.75
2022-12-22T12:37:02.942Z,100238.25
2022-12-22T12:40:29.406Z,100253.38
2022-12-22T12:43:31.569Z,100286.91
2022-12-22T12:46:55.360Z,100294.19
2022-12-22T12:50:20.606Z,100278.25
2022-12-22T12:53:27.324Z,100283.66
2022-12-22T12:56:56.519Z,100282.00
2022-12-22T12:59:59.812Z,100277.72
2022-12-22T13:03:06.340Z,100281.22
2022-12-22T13:06:11.564Z,100273.13
2022-12-22T13:12:53.430Z,100270.41
2022-12-22T13:16:04.629Z,100268.50
2022-12-22T13:19:15.399Z,100256.38
2022-12-22T13:22:18.247Z,100251.78
2022-12-22T13:25:21.232Z,100249.09
2022-12-22T13:28:23.765Z,100206.91
2022-12-22T13:31:28.702Z,100196.94
2022-12-22T13:38:44.753Z,100224.75
2022-12-22T13:41:48.682Z,100213.13
2022-12-22T13:44:51.702Z,100205.31
2022-12-22T13:47:54.213Z,100186.41
2022-12-22T13:51:01.561Z,100176.66
2022-12-22T13:54:18.935Z,100209.09
2022-12-22T13:57:21.962Z,100166.94
2022-12-22T14:00:26.280Z,100173.44
2022-12-22T14:03:58.321Z,100171.25
2022-12-22T14:06:50.632Z,100180.16
2022-12-22T14:09:56.109Z,100159.09
2022-12-22T14:12:58.946Z,100151.00
2022-12-22T14:16:02.915Z,100183.41
2022-12-22T14:19:05.352Z,100191.53
2022-12-22T14:22:11.954Z,100180.72
2022-12-22T14:25:20.322Z,100197.19
2022-12-22T14:28:27.884Z,100152.91
2022-12-22T14:31:30.144Z,100175.59
2022-12-22T14:34:33.953Z,100189.09
2022-12-22T14:37:36.613Z,100183.69
2022-12-22T14:40:40.278Z,100197.19
2022-12-22T14:43:42.410Z,100202.88
2022-12-22T14:46:45.968Z,100226.09
2022-12-22T14:49:51.432Z,100235.84
2022-12-22T14:52:56.009Z,100237.72
2022-12-22T14:55:58.224Z,100238.81
2022-12-22T14:59:12.049Z,100238.81
2022-12-22T15:02:38.277Z,100216.41
2022-12-22T15:05:44.523Z,100204.78
2022-12-22T15:08:46.682Z,100189.66
2022-12-22T15:12:02.759Z,100193.16
2022-12-22T15:15:11.673Z,100184.25
2022-12-22T15:18:14.669Z,100187.25
2022-12-22T15:21:18.052Z,100194.25
2022-12-22T15:24:20.276Z,100191.53
2022-12-22T15:27:22.395Z,100174.50
2022-12-22T15:30:29.723Z,100188.84
2022-12-22T15:33:32.297Z,100180.72
2022-12-22T15:36:34.890Z,100182.63
2022-12-22T15:39:37.133Z,100172.09
2022-12-22T15:42:39.258Z,100165.63
2022-12-22T15:45:42.115Z,100169.66
2022-12-22T15:48:45.434Z,100165.88
2022-12-22T15:51:54.695Z,100151.59
2022-12-22T15:54:56.925Z,100153.47
2022-12-22T15:57:59.346Z,100146.19
2022-12-22T16:01:02.161Z,100132.66
2022-12-22T16:04:04.587Z,100136.16
2022-12-22T16:07:06.880Z,100133.75
2022-12-22T16:10:21.387Z,100137.53
2022-12-22T16:13:29.704Z,100142.66
2022-12-22T16:16:31.934Z,100141.03
2022-12-22T16:19:34.088Z,100150.75
2022-12-22T16:22:36.955Z,100149.94
2022-12-22T16:25:39.380Z,100156.69
2022-12-22T16:28:41.545Z,100171.56
2022-12-22T16:31:43.805Z,100175.06
2022-12-22T16:34:46.093Z,100191.28
2022-12-22T16:37:51.289Z,100197.50
2022-12-22T16:40:53.907Z,100185.88
2022-12-22T16:44:02.268Z,100194.81
2022-12-22T16:47:15.693Z,100184.25
2022-12-22T16:50:22.478Z,100186.94
2022-12-22T16:53:24.755Z,100180.75
2022-12-22T16:56:30.260Z,100175.88
2022-12-22T16:59:32.399Z,100180.47
2022-12-22T17:02:34.934Z,100180.47
2022-12-22T17:05:44.316Z,100181.28
2022-12-22T17:08:47.261Z,100174.81
2022-12-22T17:11:49.430Z,100181.53
2022-12-22T17:14:52.254Z,100176.13
2022-12-22T17:17:54.471Z,100181.53
2022-12-22T17:20:58.942Z,100168.03
2022-12-22T17:24:03.919Z,100162.63
2022-12-22T17:27:06.393Z,100173.44
2022-12-22T17:30:20.165Z,100174.25
2022-12-22T17:33:22.357Z,100169.13
2022-12-22T17:36:30.379Z,100164.56
2022-12-22T17:39:33.834Z,100167.25
2022-12-22T17:42:36.005Z,100168.03
2022-12-22T17:45:38.206Z,100152.41
2022-12-22T17:48:40.319Z,100173.44
2022-12-22T17:51:42.644Z,100176.41
2022-12-22T17:54:46.336Z,100182.34
2022-12-22T17:57:50.451Z,100175.34
2022-12-22T18:00:52.659Z,100166.16
2022-12-22T18:03:55.195Z,100171.03
2022-12-22T18:06:58.515Z,100168.03
2022-12-22T18:10:00.804Z,100173.44
2022-12-22T18:13:05.719Z,100172.66
2022-12-22T18:16:15.133Z,100175.34
2022-12-22T18:19:17.489Z,100166.44
2022-12-22T18:22:20.765Z,100173.44
2022-12-22T18:25:26.143Z,100182.34
2022-12-22T18:28:28.504Z,100170.75
2022-12-22T18:31:30.664Z,100176.13
2022-12-22T18:34:32.785Z,100168.03
2022-12-22T18:37:35.224Z,100169.13
2022-12-22T18:40:39.054Z,100169.41
2022-12-22T18:43:41.247Z,100162.63
2022-12-22T18:46:43.642Z,100157.22
2022-12-22T18:49:45.928Z,100153.75
2022-12-22T18:52:50.056Z,100148.06
2022-12-22T18:55:52.598Z,100136.72
2022-12-22T18:58:57.181Z,100125.38
2022-12-22T19:02:03.172Z,100115.13
2022-12-22T19:05:26.919Z,100111.31
2022-12-22T19:08:31.462Z,100111.31
2022-12-22T19:11:33.776Z,100117.53
2022-12-22T19:14:36.042Z,100115.94
2022-12-22T19:17:38.218Z,100117.53
2022-12-22T19:20:40.391Z,100118.34
2022-12-22T19:23:42.747Z,100114.00
2022-12-22T19:26:45.039Z,100107.53
2022-12-22T19:29:47.846Z,100109.44
2022-12-22T19:32:56.297Z,100097.03
2022-12-22T19:35:59.056Z,100104.03
2022-12-22T19:39:06.023Z,100099.44
2022-12-22T19:42:13.428Z,100095.09
2022-12-22T19:45:27.443Z,100095.09
2022-12-22T19:48:29.613Z,100094.03
2022-12-22T19:51:32.298Z,100076.19
2022-12-22T19:54:34.550Z,100089.44
2022-12-22T19:57:41.233Z,100094.03
2022-12-22T20:00:44.571Z,100073.50
2022-12-22T20:03:47.047Z,100075.41
2022-12-22T20:06:49.274Z,100076.19
2022-12-22T20:09:51.775Z,100085.94
2022-12-22T20:12:56.486Z,100095.09
2022-12-22T20:15:58.929Z,100112.94
2022-12-22T20:19:01.074Z,100098.63
2022-12-22T20:22:03.366Z,100092.41
2022-12-22T20:25:05.973Z,100098.63
2022-12-22T20:28:23.543Z,100092.41
2022-12-22T20:31:26.156Z,100079.72
2022-12-22T20:34:28.350Z,100077.28
2022-12-22T20:37:30.589Z,100093.22
2022-12-22T20:40:33.390Z,100081.59
2022-12-22T20:43:36.999Z,100075.41
2022-12-22T20:46:39.519Z,100055.69
2022-12-22T20:49:42.564Z,100046.50
2022-12-22T20:52:44.689Z,100052.97
2022-12-22T20:55:47.633Z,100051.88
2022-12-22T20:58:50.248Z,100055.69
2022-12-22T21:01:52.596Z,100052.97
2022-12-22T21:04:54.833Z,100045.94
2022-12-22T21:07:57.022Z,100044.88
2022-12-22T21:11:00.150Z,100044.88
2022-12-22T21:14:02.356Z,100041.38
2022-12-22T21:17:04.613Z,100031.91
2022-12-22T21:20:09.321Z,100038.66
2022-12-22T21:23:14.049Z,100041.38
2022-12-22T21:26:32.721Z,100058.38
2022-12-22T21:29:37.799Z,100057.56
2022-12-22T21:32:42.862Z,100051.34
2022-12-22T21:35:45.083Z,100043.25
2022-12-22T21:38:47.516Z,100047.59
2022-12-22T21:42:01.911Z,100052.16
2022-12-22T21:45:04.770Z,100046.78
2022-12-22T21:48:07.054Z,100042.19
2022-12-22T21:51:11.820Z,100033.25
2022-12-22T21:54:14.049Z,100035.16
2022-12-22T21:57:16.553Z,100038.66
2022-12-22T22:00:20.191Z,100028.69
2022-12-22T22:03:22.401Z,100030.84
2022-12-22T22:06:24.709Z,100032.19
2022-12-22T22:09:26.831Z,100018.94
2022-12-22T22:12:36.951Z,100036.78
2022-12-22T22:15:39.499Z,100023.56
2022-12-22T22:18:43.320Z,100027.03
2022-12-22T22:21:46.178Z,100032.97
2022-12-22T22:24:48.429Z,100029.75
2022-12-22T22:27:51.042Z,100025.16
2022-12-22T22:30:53.236Z,100027.88
2022-12-22T22:33:55.543Z,100023.28
2022-12-22T22:36:57.647Z,100025.16
2022-12-22T22:39:59.923Z,100022.47
2022-12-22T22:43:02.075Z,100023.81
2022-12-22T22:46:04.542Z,100019.75
2022-12-22T22:49:07.732Z,100020.56
2022-12-22T22:52:10.462Z,100020.84
2022-12-22T22:55:14.243Z,100007.06
2022-12-22T22:58:16.457Z,100007.34
2022-12-22T23:01:18.570Z,100000.03
2022-12-22T23:04:20.821Z,100000.03
2022-12-22T23:07:23.205Z,99991.94
2022-12-22T23:10:25.389Z,100002.75
2022-12-22T23:13:27.947Z,99993.84
2022-12-22T23:16:35.746Z,99998.16
2022-12-22T23:19:40.389Z,99990.88
2022-12-22T23:22:42.559Z,99995.44
2022-12-22T23:25:48.647Z,99987.34
2022-12-22T23:28:51.303Z,99988.16
2022-12-22T23:31:53.659Z,99983.81
2022-12-22T23:34:55.865Z,99986.53
2022-12-22T23:37:58.020Z,99984.66
2022-12-22T23:41:05.410Z,99982.22
2022-12-22T23:44:08.977Z,99988.16
2022-12-22T23:47:11.182Z,99984.66
2022-12-22T23:50:13.403Z,99986.53
2022-12-22T23:53:16.707Z,100008.94
2022-12-22T23:56:19.003Z,100004.38
2022-12-22T23:59:21.179Z,99997.34
